createdAt,value
2018-04-25T00:00:42.112Z,58.32
2018-04-25T00:03:13.147Z,58.39
2018-04-25T00:05:44.189Z,58.60
2018-04-25T00:08:15.217Z,58.61
2018-04-25T00:10:46.250Z,58.51
2018-04-25T00:13:17.267Z,58.62
2018-04-25T00:15:48.303Z,58.54
2018-04-25T00:18:19.298Z,58.62
2018-04-25T00:20:50.406Z,58.72
2018-04-25T00:23:21.401Z,58.64
2018-04-25T00:25:52.434Z,58.62
2018-04-25T00:28:23.431Z,58.69
2018-04-25T00:30:54.414Z,58.84
2018-04-25T00:33:25.422Z,58.98
2018-04-25T00:35:56.464Z,59.10
2018-04-25T00:38:27.435Z,59.18
2018-04-25T00:40:58.452Z,59.29
2018-04-25T00:43:29.483Z,59.29
2018-04-25T00:46:00.517Z,59.36
2018-04-25T00:48:31.583Z,59.27
2018-04-25T00:51:02.581Z,59.20
2018-04-25T00:53:33.652Z,59.26
2018-04-25T00:56:04.675Z,59.26
2018-04-25T00:58:35.690Z,59.30
2018-04-25T01:01:06.668Z,59.29
2018-04-25T01:03:37.744Z,59.40
2018-04-25T01:06:08.752Z,59.51
2018-04-25T01:08:39.747Z,59.57
2018-04-25T01:11:10.786Z,59.64
2018-04-25T01:13:41.819Z,59.60
2018-04-25T01:16:12.844Z,59.70
2018-04-25T01:18:43.851Z,59.87
2018-04-25T01:21:15.024Z,59.91
2018-04-25T01:23:46.071Z,59.92
2018-04-25T01:26:17.149Z,59.87
2018-04-25T01:28:48.174Z,59.97
2018-04-25T01:31:24.066Z,60.13
2018-04-25T01:33:57.882Z,60.25
2018-04-25T01:36:44.792Z,60.39
2018-04-25T01:39:19.715Z,60.53
2018-04-25T01:41:50.796Z,60.77
2018-04-25T01:44:26.774Z,60.75
2018-04-25T01:47:00.669Z,60.66
2018-04-25T01:49:36.724Z,60.61
2018-04-25T01:52:19.894Z,60.63
2018-04-25T01:55:03.197Z,60.62
2018-04-25T01:57:46.499Z,60.63
2018-04-25T02:00:29.844Z,60.27
2018-04-25T02:03:00.642Z,59.97
2018-04-25T02:05:31.603Z,59.56
2018-04-25T02:08:02.593Z,59.08
2018-04-25T02:10:33.581Z,58.67
2018-04-25T02:13:04.559Z,58.39
2018-04-25T02:15:35.527Z,58.31
2018-04-25T02:18:06.536Z,58.47
2018-04-25T02:20:37.576Z,58.39
2018-04-25T02:23:08.548Z,58.55
2018-04-25T02:25:39.553Z,58.99
2018-04-25T02:28:10.568Z,59.45
2018-04-25T02:30:41.612Z,59.74
2018-04-25T02:33:12.624Z,60.04
2018-04-25T02:35:43.744Z,60.24
2018-04-25T02:38:14.728Z,60.21
2018-04-25T02:40:45.725Z,60.34
2018-04-25T02:43:16.776Z,60.62
2018-04-25T02:45:47.788Z,60.74
2018-04-25T02:48:18.811Z,60.73
2018-04-25T02:50:49.828Z,60.75
2018-04-25T02:53:20.852Z,60.95
2018-04-25T02:55:51.810Z,61.46
2018-04-25T02:58:22.807Z,61.72
2018-04-25T03:00:53.820Z,61.85
2018-04-25T03:03:24.832Z,61.93
2018-04-25T03:05:55.826Z,62.09
2018-04-25T03:08:26.778Z,62.15
2018-04-25T03:10:57.773Z,62.01
2018-04-25T03:13:28.783Z,61.59
2018-04-25T03:15:59.770Z,61.11
2018-04-25T03:18:30.765Z,60.74
2018-04-25T03:21:01.772Z,60.20
2018-04-25T03:23:32.771Z,59.82
2018-04-25T03:26:03.788Z,59.58
2018-04-25T03:28:41.759Z,59.63
2018-04-25T03:31:12.729Z,59.87
2018-04-25T03:33:43.712Z,59.81
2018-04-25T03:36:14.705Z,59.91
2018-04-25T03:38:45.696Z,60.24
2018-04-25T03:41:16.720Z,60.72
2018-04-25T03:43:47.760Z,61.53
2018-04-25T03:46:18.767Z,61.96
2018-04-25T03:48:49.771Z,62.58
2018-04-25T03:51:20.753Z,63.00
2018-04-25T03:53:51.796Z,63.44
2018-04-25T03:56:22.827Z,63.82
2018-04-25T03:58:53.840Z,64.21
2018-04-25T04:01:24.834Z,64.41
2018-04-25T04:03:55.793Z,64.81
2018-04-25T04:06:26.806Z,65.19
2018-04-25T04:08:57.811Z,65.51
2018-04-25T04:11:28.939Z,65.69
2018-04-25T04:13:59.941Z,65.74
2018-04-25T04:16:30.949Z,65.86
2018-04-25T04:19:01.928Z,65.61
2018-04-25T04:21:32.910Z,65.35
2018-04-25T04:24:03.938Z,65.04
2018-04-25T04:26:34.976Z,64.75
2018-04-25T04:29:06.970Z,64.41
2018-04-25T04:31:37.977Z,64.08
2018-04-25T04:34:09.020Z,63.74
2018-04-25T04:36:40.059Z,63.54
2018-04-25T04:39:11.070Z,63.33
2018-04-25T04:41:42.053Z,63.20
2018-04-25T04:44:13.053Z,62.98
2018-04-25T04:46:44.062Z,62.63
2018-04-25T04:49:15.045Z,62.34
2018-04-25T04:51:46.003Z,62.10
2018-04-25T04:54:16.999Z,61.82
2018-04-25T04:56:48.018Z,61.43
2018-04-25T04:59:19.060Z,61.06
2018-04-25T05:01:50.099Z,60.74
2018-04-25T05:04:21.098Z,60.33
2018-04-25T05:06:52.148Z,60.03
2018-04-25T05:09:23.162Z,59.71
2018-04-25T05:11:54.164Z,59.36
2018-04-25T05:14:25.137Z,59.02
2018-04-25T05:16:56.149Z,58.87
2018-04-25T05:19:27.147Z,58.65
2018-04-25T05:21:58.198Z,58.37
2018-04-25T05:24:29.295Z,58.01
2018-04-25T05:27:00.258Z,57.73
2018-04-25T05:29:31.312Z,57.36
2018-04-25T05:32:02.337Z,57.01
2018-04-25T05:34:33.315Z,56.71
2018-04-25T05:37:04.326Z,56.27
2018-04-25T05:39:35.349Z,55.99
2018-04-25T05:42:06.335Z,55.55
2018-04-25T05:44:37.351Z,55.16
2018-04-25T05:47:08.365Z,54.72
2018-04-25T05:49:39.386Z,54.21
2018-04-25T05:52:10.433Z,53.83
2018-04-25T05:54:41.433Z,53.47
2018-04-25T05:57:12.429Z,53.11
2018-04-25T05:59:43.465Z,52.65
2018-04-25T06:02:14.482Z,52.20
2018-04-25T06:04:45.516Z,51.81
2018-04-25T06:07:16.558Z,51.32
2018-04-25T06:09:47.530Z,51.01
2018-04-25T06:12:18.555Z,50.74
2018-04-25T06:14:49.524Z,50.29
2018-04-25T06:17:20.599Z,49.92
2018-04-25T06:19:51.602Z,49.32
2018-04-25T06:22:22.612Z,48.65
2018-04-25T06:24:53.564Z,48.16
2018-04-25T06:27:24.559Z,47.46
2018-04-25T06:29:55.567Z,42.39
2018-04-25T06:32:26.608Z,31.04
2018-04-25T06:35:04.752Z,22.34
2018-04-25T06:37:35.785Z,19.14
2018-04-25T06:40:06.804Z,17.27
2018-04-25T06:42:37.807Z,15.38
2018-04-25T06:45:08.841Z,13.88
2018-04-25T06:47:39.875Z,12.69
2018-04-25T06:50:10.918Z,12.38
2018-04-25T06:52:41.906Z,11.92
2018-04-25T06:55:12.971Z,11.87
2018-04-25T06:57:43.980Z,11.71
2018-04-25T07:00:14.979Z,10.91
2018-04-25T07:02:45.963Z,9.95
2018-04-25T07:05:16.996Z,9.18
2018-04-25T07:07:48.065Z,8.49
2018-04-25T07:10:19.142Z,8.46
2018-04-25T07:12:50.153Z,8.24
2018-04-25T07:15:21.134Z,8.15
2018-04-25T07:17:52.172Z,7.80
2018-04-25T07:20:23.157Z,7.46
2018-04-25T07:22:54.182Z,7.21
2018-04-25T07:25:25.170Z,6.64
2018-04-25T07:27:56.161Z,6.28
2018-04-25T07:30:27.200Z,5.70
2018-04-25T07:32:58.178Z,5.50
2018-04-25T07:35:29.263Z,5.65
2018-04-25T07:38:00.305Z,5.24
2018-04-25T07:40:31.370Z,6.00
2018-04-25T07:43:02.446Z,8.48
2018-04-25T07:45:33.481Z,9.92
2018-04-25T07:48:04.528Z,11.18
2018-04-25T07:50:35.533Z,12.89
2018-04-25T07:53:06.550Z,13.47
2018-04-25T07:55:37.549Z,13.19
2018-04-25T07:58:08.581Z,12.71
2018-04-25T08:00:39.622Z,13.23
2018-04-25T08:03:10.635Z,13.53
2018-04-25T08:05:41.599Z,11.27
2018-04-25T08:08:12.617Z,8.77
2018-04-25T08:10:43.592Z,6.93
2018-04-25T08:13:26.850Z,5.53
2018-04-25T08:16:10.016Z,4.83
2018-04-25T08:18:51.155Z,4.63
2018-04-25T08:21:34.448Z,5.88
2018-04-25T08:24:05.560Z,7.29
2018-04-25T08:26:36.572Z,9.45
2018-04-25T08:29:07.576Z,11.24
2018-04-25T08:31:38.584Z,11.55
2018-04-25T08:34:09.678Z,10.66
2018-04-25T08:36:40.733Z,8.21
2018-04-25T08:39:11.784Z,6.77
2018-04-25T08:41:42.778Z,6.41
2018-04-25T08:44:13.792Z,6.46
2018-04-25T08:46:44.795Z,6.28
2018-04-25T08:49:15.802Z,6.81
2018-04-25T08:51:46.853Z,6.68
2018-04-25T08:54:17.827Z,6.00
2018-04-25T08:56:48.904Z,5.53
2018-04-25T08:59:19.939Z,5.53
2018-04-25T09:01:50.939Z,6.26
2018-04-25T09:04:21.911Z,8.44
2018-04-25T09:06:52.897Z,9.25
2018-04-25T09:09:23.914Z,11.26
2018-04-25T09:11:54.943Z,11.90
2018-04-25T09:14:25.913Z,10.00
2018-04-25T09:16:56.921Z,8.62
2018-04-25T09:19:27.971Z,7.11
2018-04-25T09:21:59.026Z,6.44
2018-04-25T09:24:30.096Z,6.22
2018-04-25T09:27:01.120Z,6.00
2018-04-25T09:29:32.125Z,6.30
2018-04-25T09:32:03.141Z,6.17
2018-04-25T09:34:34.149Z,5.96
2018-04-25T09:37:05.156Z,5.95
2018-04-25T09:39:36.196Z,5.92
2018-04-25T09:42:07.198Z,5.04
2018-04-25T09:44:38.213Z,6.03
2018-04-25T09:47:09.316Z,6.62
2018-04-25T09:49:40.391Z,8.38
2018-04-25T09:52:11.427Z,9.18
2018-04-25T09:54:42.466Z,9.43
2018-04-25T09:57:13.478Z,9.78
2018-04-25T09:59:44.488Z,9.22
2018-04-25T10:02:21.572Z,8.85
2018-04-25T10:04:52.646Z,7.93
2018-04-25T10:07:23.605Z,7.24
2018-04-25T10:09:54.641Z,6.56
2018-04-25T10:12:25.663Z,6.06
2018-04-25T10:14:56.673Z,6.37
2018-04-25T10:17:27.683Z,7.06
2018-04-25T10:19:58.717Z,8.14
2018-04-25T10:22:29.774Z,9.44
2018-04-25T10:25:00.766Z,10.04
2018-04-25T10:27:31.811Z,9.73
2018-04-25T10:30:02.847Z,9.47
2018-04-25T10:32:33.847Z,8.67
2018-04-25T10:35:04.930Z,8.59
2018-04-25T10:37:35.969Z,8.64
2018-04-25T10:40:07.044Z,8.25
2018-04-25T10:42:38.010Z,7.99
2018-04-25T10:45:09.074Z,7.62
2018-04-25T10:47:40.062Z,7.55
2018-04-25T10:50:11.052Z,7.38
2018-04-25T10:52:42.067Z,7.23
2018-04-25T10:55:13.123Z,8.21
2018-04-25T10:57:44.094Z,9.84
2018-04-25T11:00:15.146Z,11.11
2018-04-25T11:02:46.217Z,12.59
2018-04-25T11:05:17.267Z,14.16
2018-04-25T11:07:48.286Z,15.64
2018-04-25T11:10:19.315Z,17.15
2018-04-25T11:12:50.425Z,17.80
2018-04-25T11:15:21.489Z,18.60
2018-04-25T11:17:52.531Z,19.21
2018-04-25T11:20:23.620Z,20.06
2018-04-25T11:22:54.533Z,20.41
2018-04-25T11:25:25.573Z,20.12
2018-04-25T11:27:56.618Z,20.50
2018-04-25T11:30:28.141Z,20.67
2018-04-25T11:32:59.177Z,20.83
2018-04-25T11:35:30.209Z,20.70
2018-04-25T11:38:01.187Z,20.19
2018-04-25T11:40:32.258Z,19.30
2018-04-25T11:43:03.288Z,19.38
2018-04-25T11:45:34.340Z,20.00
2018-04-25T11:48:05.347Z,20.10
2018-04-25T11:50:36.334Z,20.23
2018-04-25T11:53:07.301Z,20.28
2018-04-25T11:55:38.313Z,20.04
2018-04-25T11:58:09.323Z,21.34
2018-04-25T12:00:40.368Z,21.50
2018-04-25T12:03:11.409Z,21.92
2018-04-25T12:05:42.416Z,21.97
2018-04-25T12:08:13.425Z,21.80
2018-04-25T12:10:44.417Z,21.91
2018-04-25T12:13:15.540Z,22.16
2018-04-25T12:15:46.559Z,22.46
2018-04-25T12:18:17.549Z,21.93
2018-04-25T12:20:48.577Z,21.94
2018-04-25T12:23:19.582Z,21.61
2018-04-25T12:25:50.590Z,21.98
2018-04-25T12:28:21.576Z,22.31
2018-04-25T12:30:52.553Z,23.06
2018-04-25T12:33:23.559Z,23.22
2018-04-25T12:35:54.589Z,23.60
2018-04-25T12:38:25.630Z,23.68
2018-04-25T12:40:56.667Z,23.28
2018-04-25T12:43:28.504Z,22.83
2018-04-25T12:45:59.487Z,22.61
2018-04-25T12:48:30.509Z,22.09
2018-04-25T12:51:01.512Z,21.20
2018-04-25T12:53:32.505Z,20.66
2018-04-25T12:56:03.512Z,20.28
2018-04-25T12:58:34.595Z,20.56
2018-04-25T13:01:05.651Z,20.64
2018-04-25T13:03:36.697Z,20.25
2018-04-25T13:06:07.781Z,20.01
2018-04-25T13:08:38.832Z,19.87
2018-04-25T13:11:09.867Z,19.69
2018-04-25T13:13:40.867Z,19.15
2018-04-25T13:16:11.887Z,18.61
2018-04-25T13:18:42.906Z,18.58
2018-04-25T13:21:13.943Z,18.55
2018-04-25T13:23:44.932Z,17.73
2018-04-25T13:26:15.941Z,17.44
2018-04-25T13:28:46.990Z,17.67
2018-04-25T13:31:18.059Z,18.01
2018-04-25T13:33:49.061Z,17.80
2018-04-25T13:36:20.157Z,18.48
2018-04-25T13:38:51.147Z,18.58
2018-04-25T13:41:22.196Z,18.11
2018-04-25T13:43:53.281Z,17.32
2018-04-25T13:46:24.237Z,17.05
2018-04-25T13:48:55.227Z,16.57
2018-04-25T13:51:26.267Z,16.39
2018-04-25T13:53:57.304Z,16.07
2018-04-25T13:56:28.291Z,16.13
2018-04-25T13:58:59.352Z,16.95
2018-04-25T14:01:30.453Z,17.83
2018-04-25T14:04:01.530Z,17.56
2018-04-25T14:06:32.513Z,16.91
2018-04-25T14:09:03.599Z,17.58
2018-04-25T14:11:34.681Z,17.91
2018-04-25T14:14:05.674Z,17.23
2018-04-25T14:16:36.714Z,16.41
2018-04-25T14:19:07.738Z,16.29
2018-04-25T14:21:39.109Z,16.67
2018-04-25T14:24:10.475Z,17.07
2018-04-25T14:26:41.548Z,17.22
2018-04-25T14:29:12.634Z,18.11
2018-04-25T14:31:43.609Z,18.91
2018-04-25T14:34:14.653Z,19.21
2018-04-25T14:36:45.690Z,18.88
2018-04-25T14:39:16.731Z,18.93
2018-04-25T14:41:47.707Z,19.33
2018-04-25T14:44:18.730Z,20.17
2018-04-25T14:46:56.595Z,20.37
2018-04-25T14:49:27.599Z,20.29
2018-04-25T14:51:58.634Z,20.66
2018-04-25T14:54:29.757Z,21.16
2018-04-25T14:57:00.785Z,21.66
2018-04-25T14:59:31.796Z,21.68
2018-04-25T15:02:02.807Z,21.94
2018-04-25T15:04:33.838Z,22.30
2018-04-25T15:07:04.885Z,21.97
2018-04-25T15:09:35.884Z,22.06
2018-04-25T15:12:06.966Z,22.03
2018-04-25T15:14:38.035Z,21.92
2018-04-25T15:17:09.027Z,22.21
2018-04-25T15:19:40.158Z,22.30
2018-04-25T15:22:11.191Z,22.50
2018-04-25T15:24:42.177Z,22.58
2018-04-25T15:27:13.161Z,22.61
2018-04-25T15:29:44.248Z,22.95
2018-04-25T15:32:15.260Z,22.62
2018-04-25T15:34:46.321Z,22.27
2018-04-25T15:37:17.315Z,22.61
2018-04-25T15:39:48.357Z,23.35
2018-04-25T15:42:19.360Z,24.38
2018-04-25T15:44:50.390Z,25.08
2018-04-25T15:47:21.368Z,24.95
2018-04-25T15:49:52.376Z,25.00
2018-04-25T15:52:23.372Z,25.54
2018-04-25T15:54:54.356Z,25.54
2018-04-25T15:57:25.451Z,25.46
2018-04-25T15:59:56.468Z,25.49
2018-04-25T16:02:27.504Z,25.42
2018-04-25T16:04:58.473Z,25.50
2018-04-25T16:07:29.510Z,25.53
2018-04-25T16:10:00.521Z,25.15
2018-04-25T16:12:31.597Z,25.15
2018-04-25T16:15:02.648Z,24.87
2018-04-25T16:17:33.688Z,24.86
2018-04-25T16:20:04.757Z,25.26
2018-04-25T16:22:35.773Z,25.63
2018-04-25T16:25:07.148Z,25.74
2018-04-25T16:27:38.198Z,25.83
2018-04-25T16:30:09.208Z,26.12
2018-04-25T16:32:40.383Z,26.22
2018-04-25T16:35:11.387Z,26.75
2018-04-25T16:37:42.457Z,27.48
2018-04-25T16:40:13.460Z,28.14
2018-04-25T16:42:44.485Z,28.45
2018-04-25T16:45:15.542Z,28.62
2018-04-25T16:47:46.557Z,28.62
2018-04-25T16:50:17.603Z,28.52
2018-04-25T16:52:48.562Z,28.48
2018-04-25T16:55:19.579Z,28.21
2018-04-25T16:57:50.667Z,28.05
2018-04-25T17:00:21.688Z,27.77
2018-04-25T17:02:52.698Z,27.83
2018-04-25T17:05:23.771Z,28.09
2018-04-25T17:07:54.822Z,28.48
2018-04-25T17:10:25.884Z,29.21
2018-04-25T17:12:56.907Z,30.05
2018-04-25T17:15:27.936Z,30.58
2018-04-25T17:17:58.967Z,30.88
2018-04-25T17:20:30.052Z,30.87
2018-04-25T17:23:01.175Z,30.53
2018-04-25T17:25:32.083Z,30.44
2018-04-25T17:28:03.100Z,30.73
2018-04-25T17:30:34.142Z,30.34
2018-04-25T17:33:05.456Z,30.37
2018-04-25T17:35:36.612Z,30.58
2018-04-25T17:38:07.672Z,30.44
2018-04-25T17:40:38.686Z,30.57
2018-04-25T17:43:09.729Z,30.74
2018-04-25T17:45:40.771Z,31.03
2018-04-25T17:48:11.799Z,31.04
2018-04-25T17:50:42.813Z,31.08
2018-04-25T17:53:13.841Z,30.86
2018-04-25T17:55:44.872Z,31.07
2018-04-25T17:58:15.942Z,31.51
2018-04-25T18:00:46.978Z,31.63
2018-04-25T18:03:18.141Z,32.05
2018-04-25T18:05:49.168Z,32.46
2018-04-25T18:08:20.212Z,33.22
2018-04-25T18:10:51.250Z,33.54
2018-04-25T18:13:23.126Z,33.97
2018-04-25T18:15:54.135Z,34.19
2018-04-25T18:18:25.145Z,34.92
2018-04-25T18:20:56.189Z,34.97
2018-04-25T18:23:27.289Z,34.27
2018-04-25T18:25:58.312Z,34.61
2018-04-25T18:28:29.324Z,34.96
2018-04-25T18:31:00.348Z,34.97
2018-04-25T18:33:31.400Z,35.01
2018-04-25T18:36:02.398Z,35.42
2018-04-25T18:38:33.440Z,35.82
2018-04-25T18:41:04.517Z,35.71
2018-04-25T18:43:35.812Z,35.46
2018-04-25T18:46:06.907Z,35.38
2018-04-25T18:48:37.947Z,35.71
2018-04-25T18:51:09.018Z,35.67
2018-04-25T18:53:40.056Z,35.58
2018-04-25T18:56:11.107Z,35.57
2018-04-25T18:58:42.130Z,35.55
2018-04-25T19:01:13.188Z,35.82
2018-04-25T19:03:44.300Z,35.66
2018-04-25T19:06:15.335Z,35.67
2018-04-25T19:08:46.745Z,35.93
2018-04-25T19:11:17.861Z,36.02
2018-04-25T19:13:49.292Z,36.21
2018-04-25T19:16:20.558Z,36.36
2018-04-25T19:18:51.535Z,36.26
2018-04-25T19:21:22.931Z,36.33
2018-04-25T19:23:54.021Z,36.48
2018-04-25T19:26:25.289Z,36.73
2018-04-25T19:28:56.308Z,36.96
2018-04-25T19:31:27.697Z,36.96
2018-04-25T19:33:59.077Z,37.10
2018-04-25T19:36:30.528Z,37.32
2018-04-25T19:39:01.560Z,37.31
2018-04-25T19:41:32.637Z,37.37
2018-04-25T19:44:03.642Z,37.39
2018-04-25T19:46:34.756Z,37.59
2018-04-25T19:49:05.807Z,37.78
2018-04-25T19:51:36.842Z,38.04
2018-04-25T19:54:07.873Z,38.28
2018-04-25T19:56:39.396Z,38.40
2018-04-25T19:59:10.467Z,38.77
2018-04-25T20:01:41.493Z,39.17
2018-04-25T20:04:12.529Z,39.48
2018-04-25T20:06:43.568Z,39.69
2018-04-25T20:09:14.572Z,39.90
2018-04-25T20:11:45.981Z,39.96
2018-04-25T20:14:18.349Z,40.15
2018-04-25T20:16:49.505Z,40.29
2018-04-25T20:19:20.864Z,40.24
2018-04-25T20:21:51.923Z,40.47
2018-04-25T20:24:23.241Z,40.59
2018-04-25T20:26:54.311Z,40.52
2018-04-25T20:29:25.346Z,40.55
2018-04-25T20:31:56.464Z,40.59
2018-04-25T20:34:27.449Z,40.69
2018-04-25T20:36:58.508Z,40.80
2018-04-25T20:39:29.512Z,41.12
2018-04-25T20:42:00.587Z,41.35
2018-04-25T20:44:31.633Z,41.27
2018-04-25T20:47:02.722Z,41.47
2018-04-25T20:49:33.774Z,41.71
2018-04-25T20:52:04.791Z,42.00
2018-04-25T20:54:35.791Z,42.13
2018-04-25T20:57:06.778Z,42.23
2018-04-25T20:59:37.816Z,42.22
2018-04-25T21:02:09.116Z,42.41
2018-04-25T21:04:40.469Z,42.49
2018-04-25T21:07:11.511Z,42.69
2018-04-25T21:09:42.525Z,43.11
2018-04-25T21:12:13.565Z,43.26
2018-04-25T21:14:44.596Z,43.73
2018-04-25T21:17:15.570Z,43.83
2018-04-25T21:19:46.585Z,43.58
2018-04-25T21:22:17.585Z,43.49
2018-04-25T21:24:48.717Z,43.37
2018-04-25T21:27:19.676Z,43.26
2018-04-25T21:29:50.699Z,43.11
2018-04-25T21:32:21.667Z,43.00
2018-04-25T21:34:52.641Z,43.04
2018-04-25T21:37:23.657Z,43.20
2018-04-25T21:39:54.642Z,43.17
2018-04-25T21:42:25.662Z,43.28
2018-04-25T21:44:56.668Z,43.22
2018-04-25T21:47:27.696Z,43.18
2018-04-25T21:49:58.742Z,43.11
2018-04-25T21:52:29.775Z,43.32
2018-04-25T21:55:00.722Z,43.38
2018-04-25T21:57:31.768Z,43.49
2018-04-25T22:00:02.812Z,43.53
2018-04-25T22:02:33.837Z,43.71
2018-04-25T22:05:04.846Z,43.67
2018-04-25T22:07:35.884Z,43.51
2018-04-25T22:10:06.902Z,43.52
2018-04-25T22:12:37.909Z,43.47
2018-04-25T22:15:08.895Z,43.67
2018-04-25T22:17:39.886Z,43.94
2018-04-25T22:20:10.955Z,44.13
2018-04-25T22:22:41.966Z,44.39
2018-04-25T22:25:13.020Z,44.52
2018-04-25T22:27:43.994Z,44.39
2018-04-25T22:30:15.038Z,44.41
2018-04-25T22:32:46.010Z,44.45
2018-04-25T22:35:17.007Z,44.30
2018-04-25T22:37:48.008Z,44.26
2018-04-25T22:40:19.056Z,44.57
2018-04-25T22:42:50.095Z,44.86
2018-04-25T22:45:21.107Z,45.06
2018-04-25T22:47:52.154Z,45.38
2018-04-25T22:50:23.196Z,45.82
2018-04-25T22:52:54.209Z,46.08
2018-04-25T22:55:25.204Z,46.33
2018-04-25T22:57:56.210Z,46.33
2018-04-25T23:00:27.195Z,46.47
2018-04-25T23:02:58.254Z,46.82
2018-04-25T23:05:29.275Z,47.04
2018-04-25T23:08:00.302Z,46.89
2018-04-25T23:10:31.279Z,47.08
2018-04-25T23:13:02.318Z,47.03
2018-04-25T23:15:33.393Z,47.33
2018-04-25T23:18:04.405Z,47.94
2018-04-25T23:20:35.403Z,48.40
2018-04-25T23:23:06.418Z,48.78
2018-04-25T23:25:37.421Z,48.95
2018-04-25T23:28:08.426Z,48.58
2018-04-25T23:30:39.436Z,48.96
2018-04-25T23:33:10.430Z,48.74
2018-04-25T23:35:41.415Z,48.67
2018-04-25T23:38:12.398Z,48.81
2018-04-25T23:40:43.394Z,48.78
2018-04-25T23:43:14.364Z,48.45
2018-04-25T23:45:45.428Z,48.11
2018-04-25T23:48:16.443Z,47.94
2018-04-25T23:50:47.455Z,47.73
2018-04-25T23:53:18.494Z,47.54
2018-04-25T23:55:49.458Z,47.45
2018-04-25T23:58:20.478Z,47.41
